10G weather

Holmes County Airport
Millersburg, Ohio, United States

Public forecast

Using degrees Fahrenheit for public forecast. Weather courtesy of forecast.io.

METAR (pilot weather report)

Closest report is Wayne County Airport, 20.5 nm (38.0 km) N. Retrieved 2019/05/19 23:56 UTC (1 hour ago):

KBJJ 192356Z AUTO 00000KT 10SM BKN110 16/14 A2985 RMK AO2 RAE36 SLP104 P0003 60004 T01560144 10289 20156 50019

TAF (pilot weather forecast)

Forecast is more than 12 hours old.

Closest forecast is Mansfield Lahm Regional Airport, 30.8 nm (57.0 km) NW. Retrieved 2019/05/19 00:33 UTC (1 day ago):

TAF KMFD 192331Z 2000/2024 21012KT P6SM SCT035 BKN070 FM200900 24010KT P6SM SCT015 BKN060 FM201200 25012G21KT P6SM OVC012 FM202000 29015G25KT P6SM OVC025